Time;durP1;ratioP1;P1;durP2;ratioP2;P2;SDS_P1;SDS_P2;PMS_P1;PMS_P2;Temp;Humidity;BMP_temperature;BMP_pressure;BME280_temperature;BME280_humidity;BME280_pressure;Samples;Min_cycle;Max_cycle;Signal;HPM_P1;HPM_P2
2023/07/02 00:02:19;;;;;;;1.90;1.60;;;19.60;99.90;;;;;;5004322;28;20244;-77
2023/07/02 00:04:45;;;;;;;2.05;1.45;;;19.60;99.90;;;;;;5006459;28;20213;-77
2023/07/02 00:07:10;;;;;;;1.63;1.50;;;19.60;99.90;;;;;;5007683;28;20228;-75
2023/07/02 00:09:37;;;;;;;1.80;1.55;;;19.60;99.90;;;;;;5010571;28;20211;-77
2023/07/02 00:12:02;;;;;;;2.65;2.00;;;19.50;99.90;;;;;;5008258;28;20216;-77
2023/07/02 00:14:28;;;;;;;3.40;1.83;;;19.50;99.90;;;;;;5009010;28;20172;-77
2023/07/02 00:16:54;;;;;;;2.30;1.92;;;19.50;99.90;;;;;;5008908;28;20679;-77
2023/07/02 00:19:19;;;;;;;1.77;1.52;;;19.50;99.90;;;;;;5007783;28;20240;-78
2023/07/02 00:21:45;;;;;;;3.85;1.50;;;19.50;99.90;;;;;;5004189;28;20216;-77
2023/07/02 00:24:11;;;;;;;1.80;1.70;;;19.50;99.90;;;;;;5005459;28;20220;-75
2023/07/02 00:26:41;;;;;;;2.00;1.80;;;19.50;99.90;;;;;;5006121;28;20551;-77
2023/07/02 00:29:07;;;;;;;2.78;2.50;;;19.50;99.90;;;;;;5010476;28;20238;-76
2023/07/02 00:31:33;;;;;;;1.92;1.70;;;19.40;99.90;;;;;;5005055;28;20266;-77
2023/07/02 00:34:03;;;;;;;2.65;2.10;;;19.40;99.90;;;;;;5003361;28;20211;-78
2023/07/02 00:36:29;;;;;;;2.30;2.10;;;19.40;99.90;;;;;;5002609;28;20228;-78
2023/07/02 00:38:55;;;;;;;3.15;2.05;;;19.40;99.90;;;;;;5007920;28;20205;-78
2023/07/02 00:41:21;;;;;;;2.20;2.00;;;19.30;99.90;;;;;;4999879;28;20273;-78
2023/07/02 00:43:46;;;;;;;4.50;2.78;;;19.30;99.90;;;;;;5004862;28;20601;-78
2023/07/02 00:46:22;;;;;;;3.95;2.38;;;19.30;99.90;;;;;;5008632;28;20750;-76
2023/07/02 00:48:49;;;;;;;3.28;2.45;;;19.30;99.90;;;;;;5010344;28;20212;-78
2023/07/02 00:51:17;;;;;;;2.30;2.10;;;19.20;99.90;;;;;;5008372;28;20231;-80
2023/07/02 00:53:47;;;;;;;3.63;3.13;;;19.20;99.90;;;;;;5010077;28;20208;-78
2023/07/02 00:56:14;;;;;;;3.33;2.70;;;19.10;99.90;;;;;;5006341;28;20205;-76
2023/07/02 00:58:46;;;;;;;4.68;3.22;;;19.20;99.90;;;;;;5008886;28;20741;-78
2023/07/02 01:01:14;;;;;;;3.78;2.90;;;19.30;99.90;;;;;;5004889;28;20220;-75
2023/07/02 01:03:53;;;;;;;4.22;2.78;;;19.10;99.90;;;;;;5004945;28;20232;-77
2023/07/02 01:06:24;;;;;;;3.70;2.80;;;19.10;99.90;;;;;;5007497;28;20209;-78
2023/07/02 01:08:54;;;;;;;3.20;2.90;;;19.20;99.90;;;;;;5007891;28;20224;-78
2023/07/02 01:11:27;;;;;;;6.55;3.83;;;19.10;99.90;;;;;;5000933;28;20614;-79
2023/07/02 01:14:09;;;;;;;3.80;3.40;;;19.10;99.90;;;;;;5003507;28;20193;-79
2023/07/02 01:16:36;;;;;;;3.42;3.00;;;19.10;99.90;;;;;;5002523;28;20240;-77
2023/07/02 01:19:05;;;;;;;4.70;3.42;;;19.10;99.90;;;;;;5003956;28;20213;-78
2023/07/02 01:21:32;;;;;;;3.92;3.50;;;19.10;99.90;;;;;;5000898;28;20223;-77
2023/07/02 01:24:00;;;;;;;5.10;3.70;;;19.10;99.90;;;;;;5011136;28;20299;-77
2023/07/02 01:26:34;;;;;;;5.10;4.15;;;19.00;99.90;;;;;;5011112;28;20215;-77
2023/07/02 01:29:12;;;;;;;5.00;3.78;;;19.00;99.90;;;;;;5011618;28;20630;-77
2023/07/02 01:31:38;;;;;;;4.40;3.58;;;19.00;99.90;;;;;;5012271;28;20215;-78
2023/07/02 01:34:04;;;;;;;4.10;3.70;;;19.00;99.90;;;;;;5010834;28;20589;-77
2023/07/02 01:36:30;;;;;;;5.50;3.97;;;19.00;99.90;;;;;;5007802;28;20209;-79
2023/07/02 01:38:55;;;;;;;5.00;4.38;;;19.00;99.90;;;;;;5011986;28;20300;-78
2023/07/02 01:41:21;;;;;;;5.93;4.35;;;19.00;99.90;;;;;;5009888;28;20216;-78
2023/07/02 01:43:47;;;;;;;4.75;4.30;;;19.10;99.90;;;;;;5011728;28;20555;-78
2023/07/02 01:46:12;;;;;;;5.90;5.18;;;19.00;99.90;;;;;;5005883;28;20274;-78
2023/07/02 01:48:38;;;;;;;4.63;4.20;;;18.90;99.90;;;;;;5007563;28;20224;-77
2023/07/02 01:51:04;;;;;;;12.05;8.95;;;18.90;99.90;;;;;;5011937;28;20703;-76
2023/07/02 01:53:29;;;;;;;9.23;6.65;;;18.90;99.90;;;;;;5009805;28;20220;-76
2023/07/02 01:55:55;;;;;;;6.30;5.05;;;18.80;99.90;;;;;;5013897;28;20232;-77
2023/07/02 01:58:22;;;;;;;10.02;7.63;;;18.80;99.90;;;;;;5002397;28;20279;-77
2023/07/02 02:00:47;;;;;;;8.15;6.20;;;18.80;99.90;;;;;;5009198;28;20596;-76
2023/07/02 02:03:14;;;;;;;6.25;5.65;;;18.80;99.90;;;;;;5011386;28;20213;-79
2023/07/02 02:05:40;;;;;;;5.90;4.85;;;18.80;99.90;;;;;;5012697;28;20675;-78
2023/07/02 02:08:05;;;;;;;6.63;5.43;;;18.80;99.90;;;;;;5011979;28;20209;-75
2023/07/02 02:10:31;;;;;;;5.07;4.68;;;18.80;99.90;;;;;;5009934;28;20296;-78
2023/07/02 02:12:56;;;;;;;5.72;4.95;;;18.80;99.90;;;;;;5015191;28;20207;-79
2023/07/02 02:15:22;;;;;;;5.25;4.72;;;18.80;99.90;;;;;;5012676;28;20296;-78
2023/07/02 02:17:48;;;;;;;7.30;5.05;;;18.70;99.90;;;;;;5013706;28;20209;-78
2023/07/02 02:20:13;;;;;;;6.00;4.85;;;18.70;99.90;;;;;;5007793;28;20188;-77
2023/07/02 02:22:39;;;;;;;8.00;4.32;;;18.70;99.90;;;;;;5009949;28;20197;-77
2023/07/02 02:25:05;;;;;;;5.18;4.63;;;18.70;99.90;;;;;;5007120;28;20296;-75
2023/07/02 02:27:30;;;;;;;5.45;4.57;;;18.70;99.90;;;;;;5005002;28;20217;-77
2023/07/02 02:29:56;;;;;;;9.07;7.10;;;18.60;99.90;;;;;;5011264;28;20298;-77
2023/07/02 02:32:22;;;;;;;10.27;6.82;;;18.70;99.90;;;;;;5003146;28;20185;-77
2023/07/02 02:34:48;;;;;;;8.43;6.18;;;18.70;99.90;;;;;;5005082;28;20212;-78
2023/07/02 02:37:13;;;;;;;9.25;6.28;;;18.70;99.90;;;;;;5005130;28;20240;-78
2023/07/02 02:39:39;;;;;;;6.75;4.93;;;18.70;99.90;;;;;;5001660;28;20201;-76
2023/07/02 02:42:05;;;;;;;5.18;4.35;;;18.60;99.90;;;;;;5004775;28;20236;-75
2023/07/02 02:44:32;;;;;;;5.30;4.30;;;18.70;99.90;;;;;;5010276;28;20204;-77
2023/07/02 02:46:57;;;;;;;8.23;4.50;;;18.80;99.90;;;;;;5010980;28;20628;-77
2023/07/02 02:49:23;;;;;;;4.75;4.22;;;18.80;99.90;;;;;;5009518;28;20209;-78
2023/07/02 02:51:49;;;;;;;6.18;4.18;;;18.80;99.90;;;;;;5009622;28;20233;-76
2023/07/02 02:54:14;;;;;;;5.13;4.07;;;18.80;99.90;;;;;;5012632;28;20232;-75
2023/07/02 02:56:40;;;;;;;5.35;4.13;;;18.70;99.90;;;;;;5008318;28;20237;-77
2023/07/02 02:59:06;;;;;;;6.47;4.10;;;18.70;99.90;;;;;;5007809;28;20173;-77
2023/07/02 03:01:32;;;;;;;6.05;4.32;;;18.70;99.90;;;;;;5005568;28;20210;-78
2023/07/02 03:04:00;;;;;;;5.72;4.35;;;18.70;99.90;;;;;;5006562;28;20691;-77
2023/07/02 03:06:26;;;;;;;5.25;3.30;;;18.70;99.90;;;;;;5002210;28;20225;-78
2023/07/02 03:08:52;;;;;;;4.72;3.50;;;18.70;99.90;;;;;;5005430;28;20228;-78
2023/07/02 03:11:17;;;;;;;5.70;3.90;;;18.70;99.90;;;;;;5007853;28;20188;-77
2023/07/02 03:13:43;;;;;;;6.63;4.03;;;18.70;99.90;;;;;;5004244;28;20561;-77
2023/07/02 03:16:09;;;;;;;6.32;3.78;;;18.70;99.90;;;;;;5007241;28;20213;-77
2023/07/02 03:18:35;;;;;;;4.35;3.95;;;18.70;99.90;;;;;;5005615;28;20217;-75
2023/07/02 03:21:00;;;;;;;5.30;3.95;;;18.60;99.90;;;;;;5011303;28;20422;-76
2023/07/02 03:23:26;;;;;;;5.43;3.83;;;18.60;99.90;;;;;;5009328;28;20203;-77
2023/07/02 03:25:51;;;;;;;4.25;3.70;;;18.60;99.90;;;;;;5010176;28;20667;-77
2023/07/02 03:28:17;;;;;;;5.00;4.15;;;18.60;99.90;;;;;;5009376;28;20212;-78
2023/07/02 03:30:43;;;;;;;5.68;3.88;;;18.60;99.90;;;;;;5008621;28;20239;-78
2023/07/02 03:33:09;;;;;;;4.78;4.05;;;18.60;99.90;;;;;;5008637;28;20225;-77
2023/07/02 03:35:35;;;;;;;4.43;3.45;;;18.60;99.90;;;;;;5008501;28;20205;-77
2023/07/02 03:38:02;;;;;;;3.60;3.20;;;18.60;99.90;;;;;;5003356;28;20181;-77
2023/07/02 03:40:27;;;;;;;4.90;3.63;;;18.50;99.90;;;;;;5007486;28;20542;-77
2023/07/02 03:42:53;;;;;;;6.07;3.90;;;18.60;99.90;;;;;;5011486;28;20220;-77
2023/07/02 03:45:18;;;;;;;5.75;3.53;;;18.60;99.90;;;;;;5006843;28;20243;-77
2023/07/02 03:47:44;;;;;;;4.78;3.15;;;18.60;99.90;;;;;;5004338;28;20220;-78
2023/07/02 03:50:10;;;;;;;4.55;3.50;;;18.60;99.90;;;;;;5002846;28;20589;-77
2023/07/02 03:52:35;;;;;;;3.80;3.05;;;18.60;99.90;;;;;;5005817;28;20252;-77
2023/07/02 03:55:01;;;;;;;3.70;3.40;;;18.60;99.90;;;;;;5008629;28;20217;-77
2023/07/02 03:57:27;;;;;;;6.30;3.30;;;18.50;99.90;;;;;;5004225;28;20217;-78
2023/07/02 03:59:53;;;;;;;4.05;3.28;;;18.60;99.90;;;;;;5010244;28;20205;-77
2023/07/02 04:02:19;;;;;;;5.95;3.20;;;18.60;99.90;;;;;;5009828;28;20187;-77
2023/07/02 04:04:44;;;;;;;4.70;3.08;;;18.50;99.90;;;;;;5016453;28;20301;-77
2023/07/02 04:07:11;;;;;;;3.58;2.70;;;18.40;99.90;;;;;;5008311;28;20618;-77
2023/07/02 04:09:36;;;;;;;5.00;3.08;;;18.50;99.90;;;;;;5007995;28;20712;-77
2023/07/02 04:12:02;;;;;;;3.53;2.67;;;18.50;99.90;;;;;;5009555;28;20224;-77
2023/07/02 04:14:27;;;;;;;5.45;2.90;;;18.60;99.90;;;;;;5007794;28;20767;-78
2023/07/02 04:16:53;;;;;;;5.70;3.58;;;18.60;99.90;;;;;;5009020;28;20215;-77
2023/07/02 04:19:19;;;;;;;4.53;3.15;;;18.70;99.90;;;;;;5007389;28;20400;-76
2023/07/02 04:21:44;;;;;;;4.80;2.95;;;18.60;99.90;;;;;;5004348;28;20293;-77
2023/07/02 04:24:10;;;;;;;3.05;2.67;;;18.70;99.90;;;;;;5007958;28;20303;-78
2023/07/02 04:26:36;;;;;;;8.27;3.20;;;18.90;99.90;;;;;;5000827;28;20197;-77
2023/07/02 04:29:02;;;;;;;3.20;2.90;;;19.00;99.90;;;;;;5003677;28;20295;-76
2023/07/02 04:31:28;;;;;;;4.40;2.63;;;19.30;99.90;;;;;;4999846;28;20652;-77
2023/07/02 04:33:53;;;;;;;3.25;2.85;;;19.90;99.90;;;;;;5006795;28;20213;-77
2023/07/02 04:36:19;;;;;;;5.22;3.90;;;21.30;99.90;;;;;;5005847;28;20213;-77
2023/07/02 04:38:44;;;;;;;5.05;1.95;;;22.90;99.90;;;;;;5009061;28;20299;-78
2023/07/02 04:41:10;;;;;;;4.82;2.10;;;22.20;99.90;;;;;;5030712;28;20208;-78
2023/07/02 04:43:36;;;;;;;3.95;2.50;;;22.20;99.90;;;;;;5013318;28;20672;-79
2023/07/02 04:46:02;;;;;;;3.47;2.35;;;22.00;99.90;;;;;;5010509;28;20213;-79
2023/07/02 04:48:28;;;;;;;2.97;2.50;;;21.90;99.90;;;;;;5009594;28;20220;-79
2023/07/02 04:50:53;;;;;;;6.28;2.53;;;21.70;99.90;;;;;;5016118;28;20211;-78
2023/07/02 04:53:19;;;;;;;2.42;2.05;;;21.40;99.90;;;;;;5008965;28;20184;-76
2023/07/02 04:55:45;;;;;;;3.80;2.15;;;21.40;99.90;;;;;;5010837;28;20215;-76
2023/07/02 04:58:10;;;;;;;6.70;2.38;;;21.60;99.90;;;;;;5013101;28;20208;-76
2023/07/02 05:00:36;;;;;;;4.70;2.20;;;23.40;99.90;;;;;;5011834;28;20202;-76
2023/07/02 05:03:02;;;;;;;5.22;1.60;;;25.20;99.90;;;;;;5010872;28;20201;-76
2023/07/02 05:05:27;;;;;;;3.13;2.03;;;27.20;99.90;;;;;;5006413;28;20174;-77
2023/07/02 05:07:54;;;;;;;3.40;1.80;;;28.30;99.90;;;;;;5017337;28;20259;-77
2023/07/02 05:10:20;;;;;;;2.00;1.55;;;28.80;99.90;;;;;;5017930;28;20225;-76
2023/07/02 05:12:46;;;;;;;1.85;1.50;;;29.80;99.90;;;;;;5008853;28;20283;-77
2023/07/02 05:15:12;;;;;;;3.92;2.00;;;29.20;99.90;;;;;;5020519;28;20228;-76
2023/07/02 05:17:37;;;;;;;3.25;1.70;;;28.50;99.90;;;;;;5020978;28;20660;-77
2023/07/02 05:20:07;;;;;;;2.63;1.70;;;27.00;99.90;;;;;;5022756;28;20172;-76
2023/07/02 05:22:32;;;;;;;4.90;2.03;;;26.10;99.90;;;;;;5018856;28;20757;-76
2023/07/02 05:24:58;;;;;;;3.40;1.77;;;26.30;99.90;;;;;;5018572;28;20212;-77
2023/07/02 05:27:23;;;;;;;2.78;1.98;;;26.10;99.90;;;;;;5015717;28;20209;-77
2023/07/02 05:29:49;;;;;;;6.70;2.13;;;27.00;99.90;;;;;;5017134;28;20702;-77
2023/07/02 05:32:15;;;;;;;4.03;1.63;;;26.70;99.90;;;;;;5016672;28;20191;-77
2023/07/02 05:34:40;;;;;;;3.25;2.10;;;26.90;99.90;;;;;;5010863;28;20293;-78
2023/07/02 05:37:06;;;;;;;4.13;2.25;;;27.00;99.90;;;;;;5011803;28;20209;-76
2023/07/02 05:39:34;;;;;;;2.95;2.05;;;26.30;99.90;;;;;;5015562;28;20621;-78
2023/07/02 05:41:59;;;;;;;5.10;1.77;;;25.90;99.90;;;;;;5012415;28;20263;-76
2023/07/02 05:44:25;;;;;;;5.80;1.95;;;26.00;99.90;;;;;;5010299;28;20613;-78
2023/07/02 05:46:50;;;;;;;4.65;2.08;;;25.50;99.90;;;;;;5011538;28;20216;-78
2023/07/02 05:49:16;;;;;;;3.80;2.05;;;25.40;99.90;;;;;;5010373;28;20579;-78
2023/07/02 05:51:42;;;;;;;4.07;1.90;;;26.70;99.90;;;;;;5011603;28;20216;-77
2023/07/02 05:54:07;;;;;;;5.13;2.50;;;28.20;99.90;;;;;;5022307;28;20270;-77
2023/07/02 05:56:33;;;;;;;3.78;2.00;;;29.80;99.90;;;;;;5022700;28;20204;-78
2023/07/02 05:58:58;;;;;;;4.20;1.50;;;30.20;99.90;;;;;;5018288;28;20180;-78
2023/07/02 06:01:24;;;;;;;6.90;1.98;;;30.70;99.90;;;;;;5017805;28;20706;-77
2023/07/02 06:03:50;;;;;;;3.55;1.85;;;31.40;99.90;;;;;;5014327;28;20212;-77
2023/07/02 06:06:16;;;;;;;3.13;2.25;;;31.40;99.90;;;;;;5016686;28;20649;-77
2023/07/02 06:08:42;;;;;;;3.75;1.75;;;30.80;99.90;;;;;;5013886;28;20225;-78
2023/07/02 06:11:09;;;;;;;3.50;1.90;;;30.00;99.90;;;;;;5012191;28;20177;-76
2023/07/02 06:13:34;;;;;;;2.75;1.95;;;30.70;99.90;;;;;;5011874;28;20224;-78
2023/07/02 06:16:00;;;;;;;3.97;2.38;;;30.10;99.90;;;;;;5014445;28;20801;-78
2023/07/02 06:18:26;;;;;;;3.58;2.15;;;27.80;99.90;;;;;;5026295;28;20213;-78
2023/07/02 06:20:51;;;;;;;3.92;2.10;;;26.50;99.90;;;;;;5015758;28;20745;-79
2023/07/02 06:23:17;;;;;;;3.60;2.15;;;25.50;99.90;;;;;;5011974;28;20184;-79
2023/07/02 06:25:43;;;;;;;3.55;2.15;;;24.40;99.90;;;;;;5012895;28;20285;-78
2023/07/02 06:28:09;;;;;;;4.72;2.00;;;23.50;99.90;;;;;;5008469;28;20214;-78
2023/07/02 06:30:35;;;;;;;6.35;2.70;;;22.90;99.90;;;;;;5010667;28;20201;-77
2023/07/02 06:33:01;;;;;;;5.80;3.00;;;22.70;99.90;;;;;;5023065;28;20291;-78
2023/07/02 06:35:26;;;;;;;3.67;2.10;;;22.70;99.90;;;;;;5020496;28;20182;-79
2023/07/02 06:37:52;;;;;;;2.70;2.30;;;23.10;99.90;;;;;;5015547;28;20192;-77
2023/07/02 06:40:18;;;;;;;4.05;2.50;;;23.70;99.90;;;;;;5016807;28;20584;-77
2023/07/02 06:42:43;;;;;;;4.40;2.17;;;25.40;99.90;;;;;;5015751;28;20295;-77
2023/07/02 06:45:09;;;;;;;5.10;2.45;;;26.70;99.90;;;;;;5017121;28;20324;-76
2023/07/02 06:47:34;;;;;;;2.47;1.98;;;27.90;99.90;;;;;;5015531;28;20683;-77
2023/07/02 06:50:00;;;;;;;3.75;2.10;;;28.20;99.90;;;;;;5019189;28;20209;-76
2023/07/02 06:52:26;;;;;;;3.15;2.15;;;28.30;99.90;;;;;;5016802;28;20211;-79
2023/07/02 06:54:52;;;;;;;2.30;2.00;;;27.90;99.90;;;;;;5012033;28;20219;-77
2023/07/02 06:57:17;;;;;;;4.78;2.30;;;27.60;99.90;;;;;;5012047;28;20292;-77
2023/07/02 06:59:43;;;;;;;2.72;1.90;;;26.40;99.90;;;;;;5007157;28;20268;-78
2023/07/02 07:02:08;;;;;;;5.00;2.38;;;26.00;99.90;;;;;;5015216;28;20226;-78
2023/07/02 07:04:37;;;;;;;3.25;2.25;;;25.80;99.90;;;;;;5014744;28;20204;-77
2023/07/02 07:07:03;;;;;;;5.97;2.70;;;25.70;99.90;;;;;;5008860;28;20603;-78
2023/07/02 07:09:29;;;;;;;4.22;2.35;;;25.60;99.90;;;;;;5007191;28;20209;-77
2023/07/02 07:11:55;;;;;;;3.83;2.40;;;25.50;99.90;;;;;;5020825;28;20627;-77
2023/07/02 07:14:21;;;;;;;3.70;2.65;;;25.20;99.90;;;;;;5020469;28;20288;-76
2023/07/02 07:16:47;;;;;;;4.97;2.63;;;24.50;99.90;;;;;;5018747;28;20208;-78
2023/07/02 07:19:12;;;;;;;3.58;2.38;;;24.40;99.90;;;;;;5019000;28;20243;-77
2023/07/02 07:21:38;;;;;;;4.57;2.60;;;24.50;99.90;;;;;;5018142;28;20217;-76
2023/07/02 07:24:04;;;;;;;3.55;2.72;;;24.80;99.90;;;;;;5029247;28;20683;-78
2023/07/02 07:26:30;;;;;;;3.63;2.33;;;25.10;99.90;;;;;;5014145;28;20215;-79
2023/07/02 07:28:55;;;;;;;3.13;2.03;;;26.30;99.90;;;;;;5016861;28;20623;-78
2023/07/02 07:31:21;;;;;;;5.05;2.70;;;27.60;99.90;;;;;;5012846;28;20699;-78
2023/07/02 07:33:47;;;;;;;7.10;2.53;;;28.70;99.90;;;;;;5015628;28;20303;-77
2023/07/02 07:36:13;;;;;;;4.95;2.72;;;27.60;99.90;;;;;;5013122;28;20208;-77
2023/07/02 07:38:39;;;;;;;4.50;2.67;;;26.70;99.90;;;;;;5014244;28;20228;-75
2023/07/02 07:41:05;;;;;;;4.43;2.50;;;26.60;99.90;;;;;;5012147;28;20176;-74
2023/07/02 07:43:30;;;;;;;5.95;2.72;;;26.10;99.90;;;;;;5005635;28;20218;-75
2023/07/02 07:45:56;;;;;;;4.75;2.90;;;25.40;99.90;;;;;;5008071;28;20270;-76
2023/07/02 07:48:22;;;;;;;4.13;2.55;;;24.40;99.90;;;;;;5020120;28;20239;-76
2023/07/02 07:50:47;;;;;;;4.68;2.50;;;23.90;99.90;;;;;;5019161;28;20216;-76
2023/07/02 07:53:13;;;;;;;4.50;2.58;;;23.50;99.90;;;;;;5018607;28;20196;-75
2023/07/02 07:55:39;;;;;;;3.50;2.78;;;22.80;99.90;;;;;;5017037;28;20225;-75
2023/07/02 07:58:04;;;;;;;3.30;2.60;;;22.60;99.90;;;;;;5017946;28;20204;-74
2023/07/02 08:00:30;;;;;;;6.28;3.72;;;22.30;99.90;;;;;;5013161;28;20205;-75
2023/07/02 08:02:55;;;;;;;6.80;3.08;;;22.20;99.90;;;;;;5008177;28;20288;-75
2023/07/02 08:05:22;;;;;;;7.80;3.40;;;22.00;99.90;;;;;;5015307;28;20238;-77
2023/07/02 08:07:48;;;;;;;5.35;2.85;;;21.80;99.90;;;;;;5013797;28;20202;-77
2023/07/02 08:10:14;;;;;;;10.45;4.30;;;21.40;99.90;;;;;;5014555;28;20208;-77
2023/07/02 08:12:39;;;;;;;9.52;3.40;;;21.50;99.90;;;;;;5015189;28;20208;-78
2023/07/02 08:15:06;;;;;;;7.55;2.88;;;21.50;99.90;;;;;;5011747;28;20209;-77
2023/07/02 08:17:31;;;;;;;4.75;2.80;;;21.40;99.90;;;;;;5011899;28;20288;-78
2023/07/02 08:19:57;;;;;;;4.13;3.20;;;21.20;99.90;;;;;;5013005;28;20330;-78
2023/07/02 08:22:23;;;;;;;4.00;3.00;;;21.10;99.90;;;;;;5013039;28;20292;-78
2023/07/02 08:24:49;;;;;;;3.20;2.67;;;21.10;99.90;;;;;;5012172;28;20290;-77
2023/07/02 08:27:18;;;;;;;3.10;2.63;;;21.20;99.90;;;;;;5012463;28;20217;-78
2023/07/02 08:29:45;;;;;;;5.72;3.05;;;21.10;99.90;;;;;;5016155;28;20223;-77
2023/07/02 08:32:11;;;;;;;3.53;2.50;;;21.30;99.90;;;;;;5022067;28;20169;-77
2023/07/02 08:34:36;;;;;;;5.50;2.88;;;21.40;99.90;;;;;;5010167;28;20618;-77
2023/07/02 08:37:02;;;;;;;6.85;3.30;;;21.50;99.90;;;;;;5017410;28;20299;-77
2023/07/02 08:39:28;;;;;;;5.68;3.20;;;21.50;99.90;;;;;;5012633;28;20202;-78
2023/07/02 08:41:53;;;;;;;4.35;3.05;;;21.60;99.90;;;;;;5012357;28;20563;-77
2023/07/02 08:44:22;;;;;;;7.07;3.20;;;21.40;99.90;;;;;;5027268;28;20177;-75
2023/07/02 08:46:50;;;;;;;8.23;3.70;;;21.40;99.90;;;;;;5010346;28;20245;-78
2023/07/02 08:49:17;;;;;;;5.18;3.63;;;21.40;99.90;;;;;;5008972;28;20216;-75
2023/07/02 08:51:46;;;;;;;5.75;3.13;;;21.50;99.90;;;;;;5013060;28;20342;-76
2023/07/02 08:54:12;;;;;;;5.93;3.42;;;21.40;99.90;;;;;;5014072;28;20205;-75
2023/07/02 08:56:39;;;;;;;10.23;3.92;;;21.40;99.90;;;;;;5010757;28;20204;-76
2023/07/02 08:59:07;;;;;;;5.03;3.67;;;21.50;99.90;;;;;;5012469;28;20553;-72
2023/07/02 09:01:33;;;;;;;8.93;4.05;;;21.60;99.90;;;;;;5014531;28;20205;-76
2023/07/02 09:04:02;;;;;;;8.48;3.60;;;21.80;99.90;;;;;;5010058;28;20656;-76
2023/07/02 09:06:28;;;;;;;9.05;4.07;;;21.90;99.90;;;;;;5005643;28;20217;-76
2023/07/02 09:09:03;;;;;;;4.88;3.40;;;21.90;99.90;;;;;;5015830;28;20224;-75
2023/07/02 09:11:29;;;;;;;6.40;4.53;;;21.70;99.90;;;;;;5025202;28;20181;-75
2023/07/02 09:14:02;;;;;;;9.50;4.90;;;21.90;99.90;;;;;;5009842;28;20181;-75
2023/07/02 09:16:29;;;;;;;6.88;3.67;;;22.40;99.90;;;;;;5011068;28;20220;-74
2023/07/02 09:19:03;;;;;;;10.60;4.47;;;23.10;99.90;;;;;;5012551;28;20209;-73
2023/07/02 09:21:48;;;;;;;5.53;3.72;;;23.40;99.90;;;;;;5023557;28;20216;-75
2023/07/02 09:24:19;;;;;;;7.22;4.03;;;23.30;99.90;;;;;;5011736;28;20204;-73
2023/07/02 09:26:55;;;;;;;7.55;4.32;;;23.20;99.90;;;;;;5010894;28;20221;-74
2023/07/02 09:29:31;;;;;;;7.03;4.18;;;23.10;99.90;;;;;;4997546;28;20247;-74
2023/07/02 09:32:09;;;;;;;7.18;4.60;;;23.30;99.90;;;;;;5009341;28;20219;-74
2023/07/02 09:34:37;;;;;;;8.30;4.63;;;23.40;99.90;;;;;;4996842;28;20201;-74
2023/07/02 09:37:04;;;;;;;7.68;4.53;;;23.60;99.90;;;;;;5007891;28;20213;-74
2023/07/02 09:39:32;;;;;;;6.97;4.20;;;23.90;99.90;;;;;;5007023;28;20201;-74
2023/07/02 09:42:00;;;;;;;11.30;4.70;;;24.60;99.90;;;;;;4998957;28;20240;-74
2023/07/02 09:44:33;;;;;;;7.00;4.03;;;24.90;99.90;;;;;;5002622;28;20173;-74
2023/07/02 09:47:06;;;;;;;10.75;5.57;;;25.20;99.90;;;;;;5007899;28;20229;-75
2023/07/02 09:49:41;;;;;;;8.88;4.80;;;24.90;99.90;;;;;;5010038;28;20205;-75
2023/07/02 09:52:08;;;;;;;13.48;5.60;;;24.70;99.90;;;;;;5004777;28;20206;-74
2023/07/02 09:54:35;;;;;;;8.45;4.95;;;24.90;99.90;;;;;;5013758;28;20229;-74
2023/07/02 09:57:01;;;;;;;10.32;5.53;;;25.30;99.90;;;;;;5013915;28;20263;-74
2023/07/02 09:59:28;;;;;;;12.88;5.18;;;25.20;99.90;;;;;;5012195;28;20203;-76
2023/07/02 10:01:54;;;;;;;11.32;5.43;;;25.40;99.90;;;;;;5013174;28;20657;-76
2023/07/02 10:04:23;;;;;;;11.70;5.50;;;25.70;99.90;;;;;;5013136;28;20205;-72
2023/07/02 10:06:51;;;;;;;10.38;5.70;;;25.70;99.90;;;;;;5010817;28;20730;-74
2023/07/02 10:09:17;;;;;;;12.80;6.03;;;25.50;99.90;;;;;;5008008;28;20739;-74
2023/07/02 10:11:43;;;;;;;7.35;4.88;;;25.60;99.90;;;;;;5010517;28;20270;-75
2023/07/02 10:14:09;;;;;;;9.30;5.10;;;25.80;99.90;;;;;;5006283;28;20189;-73
2023/07/02 10:16:49;;;;;;;12.98;5.53;;;25.50;99.90;;;;;;5010697;28;20216;-74
2023/07/02 10:19:14;;;;;;;10.07;5.65;;;25.10;99.90;;;;;;5006553;28;20335;-74
2023/07/02 10:21:40;;;;;;;13.43;6.00;;;25.50;99.90;;;;;;5011406;28;20228;-76
2023/07/02 10:24:14;;;;;;;14.68;6.63;;;25.50;99.90;;;;;;5014404;28;20212;-75
2023/07/02 10:26:55;;;;;;;8.57;5.15;;;25.00;99.90;;;;;;5008830;28;20217;-76
2023/07/02 10:29:24;;;;;;;13.45;5.75;;;25.30;99.90;;;;;;5008488;28;20199;-74
2023/07/02 10:31:51;;;;;;;8.70;5.25;;;25.20;99.90;;;;;;5007039;28;20173;-75
2023/07/02 10:34:27;;;;;;;11.43;4.93;;;24.80;99.90;;;;;;5015167;28;20204;-73
2023/07/02 10:36:56;;;;;;;12.75;5.68;;;24.40;99.90;;;;;;5008897;28;20722;-76
2023/07/02 10:39:22;;;;;;;9.68;5.47;;;24.50;99.90;;;;;;5011846;28;20212;-76
2023/07/02 10:41:49;;;;;;;12.50;6.22;;;24.60;99.90;;;;;;5011142;28;20220;-75
2023/07/02 10:44:15;;;;;;;11.00;5.70;;;24.00;99.90;;;;;;5012408;28;20208;-74
2023/07/02 10:46:47;;;;;;;12.38;6.38;;;23.70;99.90;;;;;;5015008;28;20225;-73
2023/07/02 10:49:18;;;;;;;15.73;5.65;;;23.90;99.90;;;;;;5007464;28;20296;-74
2023/07/02 10:51:43;;;;;;;11.93;5.75;;;23.80;99.90;;;;;;5010477;28;20276;-75
2023/07/02 10:54:09;;;;;;;14.48;5.85;;;24.40;99.90;;;;;;5011260;28;20286;-74
2023/07/02 10:56:35;;;;;;;14.77;6.20;;;24.70;99.90;;;;;;5010373;28;20690;-73
2023/07/02 10:59:01;;;;;;;12.18;6.13;;;24.30;99.90;;;;;;5010094;28;20209;-74
2023/07/02 11:01:29;;;;;;;10.95;6.38;;;24.30;99.90;;;;;;5017131;28;20582;-74
2023/07/02 11:03:59;;;;;;;11.02;5.70;;;24.20;99.90;;;;;;5017813;28;20205;-74
2023/07/02 11:06:26;;;;;;;13.27;6.57;;;24.00;99.90;;;;;;5011735;28;20215;-74
2023/07/02 11:08:52;;;;;;;11.32;6.38;;;23.90;99.90;;;;;;5009562;28;20698;-73
2023/07/02 11:11:18;;;;;;;16.63;7.72;;;23.70;99.90;;;;;;5014550;28;20212;-73
2023/07/02 11:13:49;;;;;;;14.45;6.35;;;23.80;99.90;;;;;;5015979;28;20184;-73
2023/07/02 11:16:26;;;;;;;13.10;6.30;;;24.10;99.90;;;;;;5009483;28;20301;-72
2023/07/02 11:19:09;;;;;;;14.23;6.65;;;24.10;99.90;;;;;;5005683;28;20262;-74
2023/07/02 11:21:35;;;;;;;11.95;6.30;;;24.00;99.90;;;;;;5009396;28;20216;-74
2023/07/02 11:24:03;;;;;;;15.10;6.40;;;23.90;99.90;;;;;;5009567;28;20229;-76
2023/07/02 11:26:36;;;;;;;11.38;6.07;;;23.90;99.90;;;;;;5004376;28;20194;-76
2023/07/02 11:29:01;;;;;;;15.15;6.65;;;24.00;99.90;;;;;;5011128;28;20729;-75
2023/07/02 11:31:27;;;;;;;16.48;6.43;;;24.10;99.90;;;;;;5012121;28;20292;-74
2023/07/02 11:33:54;;;;;;;15.77;5.85;;;23.50;99.90;;;;;;5005812;28;20220;-72
2023/07/02 11:36:26;;;;;;;11.35;5.88;;;23.70;99.90;;;;;;5012712;28;20232;-74
2023/07/02 11:38:54;;;;;;;11.90;6.10;;;23.30;99.90;;;;;;5012937;28;20209;-74
2023/07/02 11:41:21;;;;;;;14.32;6.07;;;23.20;99.90;;;;;;5009358;28;20181;-74
2023/07/02 11:43:46;;;;;;;12.80;5.80;;;23.70;99.90;;;;;;5010918;28;20216;-74
2023/07/02 11:46:13;;;;;;;13.32;6.18;;;23.80;99.90;;;;;;5010287;28;20221;-73
2023/07/02 11:48:39;;;;;;;15.10;6.70;;;23.80;99.90;;;;;;5005900;28;20213;-73
2023/07/02 11:51:04;;;;;;;13.00;5.90;;;24.00;99.90;;;;;;5012112;28;20213;-72
2023/07/02 11:53:30;;;;;;;12.73;6.35;;;23.70;99.90;;;;;;5005395;28;20208;-73
2023/07/02 11:55:55;;;;;;;14.57;6.13;;;23.50;99.90;;;;;;5006823;28;20245;-73
2023/07/02 11:58:21;;;;;;;13.05;6.32;;;23.20;99.90;;;;;;5008576;28;20574;-73
2023/07/02 12:00:47;;;;;;;14.43;7.30;;;23.20;99.90;;;;;;5009063;28;20204;-73
2023/07/02 12:03:12;;;;;;;11.25;6.32;;;23.50;99.90;;;;;;5008602;28;20338;-71
2023/07/02 12:05:38;;;;;;;12.48;6.82;;;23.90;99.90;;;;;;5007045;28;20221;-75
2023/07/02 12:08:04;;;;;;;12.98;6.22;;;24.00;99.90;;;;;;5009560;28;20189;-72
2023/07/02 12:10:29;;;;;;;11.63;6.20;;;23.90;99.90;;;;;;5007483;28;20219;-74
2023/07/02 12:12:55;;;;;;;15.80;6.32;;;23.60;99.90;;;;;;5005730;28;20230;-73
2023/07/02 12:15:20;;;;;;;13.05;6.75;;;23.50;99.90;;;;;;5010571;28;20573;-72
2023/07/02 12:17:46;;;;;;;10.77;6.45;;;23.20;99.90;;;;;;5005177;28;20220;-72
2023/07/02 12:20:12;;;;;;;14.82;6.97;;;23.20;99.90;;;;;;5009916;28;20172;-73
2023/07/02 12:22:37;;;;;;;15.35;6.03;;;23.30;99.90;;;;;;5004340;28;20267;-73
2023/07/02 12:25:03;;;;;;;13.90;6.50;;;23.10;99.90;;;;;;5014258;28;20236;-73
2023/07/02 12:27:29;;;;;;;15.55;6.00;;;23.30;99.90;;;;;;5003536;28;20216;-76
2023/07/02 12:29:56;;;;;;;13.25;6.47;;;23.40;99.90;;;;;;5006042;28;20652;-77
2023/07/02 12:32:21;;;;;;;17.80;7.05;;;23.40;99.90;;;;;;5010007;28;20173;-75
2023/07/02 12:34:47;;;;;;;15.50;6.97;;;23.50;99.90;;;;;;5011695;28;20181;-74
2023/07/02 12:37:17;;;;;;;13.88;6.68;;;23.60;99.90;;;;;;5014958;28;20311;-74
2023/07/02 12:39:42;;;;;;;11.88;6.30;;;23.50;99.90;;;;;;5010396;28;20324;-74
2023/07/02 12:42:09;;;;;;;12.52;6.20;;;23.50;99.90;;;;;;5008563;28;20681;-73
2023/07/02 12:44:34;;;;;;;12.00;6.93;;;23.40;99.90;;;;;;5010946;28;20212;-73